Time;durP1;ratioP1;P1;durP2;ratioP2;P2;SDS_P1;SDS_P2;PMS_P1;PMS_P2;Temp;Humidity;BMP_temperature;BMP_pressure;BME280_temperature;BME280_humidity;BME280_pressure;Samples;Min_cycle;Max_cycle;Signal;HPM_P1;HPM_P2
2022/02/08 00:00:09;;;;;;;7.10;2.38;;;1.90;99.90;;;;;;5081002;28;20029;-72
2022/02/08 00:02:40;;;;;;;6.65;2.17;;;1.90;99.90;;;;;;5084064;28;20028;-73
2022/02/08 00:05:08;;;;;;;5.45;2.05;;;1.90;99.90;;;;;;5063731;28;20073;-72
2022/02/08 00:07:34;;;;;;;8.35;1.90;;;1.90;99.90;;;;;;5091605;28;20024;-72
2022/02/08 00:09:59;;;;;;;8.25;2.15;;;1.80;99.90;;;;;;5091563;28;20017;-72
2022/02/08 00:12:25;;;;;;;7.60;2.05;;;1.80;99.90;;;;;;5086916;28;20013;-72
2022/02/08 00:14:52;;;;;;;7.00;2.30;;;1.80;99.90;;;;;;5092062;28;20051;-73
2022/02/08 00:17:18;;;;;;;10.77;2.10;;;1.80;99.90;;;;;;5073527;28;20024;-72
2022/02/08 00:19:43;;;;;;;5.30;1.60;;;1.80;99.90;;;;;;5092159;28;20498;-72
2022/02/08 00:22:09;;;;;;;7.10;2.20;;;1.70;99.90;;;;;;5073699;28;20123;-72
2022/02/08 00:24:34;;;;;;;4.32;2.08;;;1.70;99.90;;;;;;5074149;28;20034;-72
2022/02/08 00:27:01;;;;;;;6.72;2.00;;;1.80;99.90;;;;;;5072695;28;20461;-74
2022/02/08 00:29:26;;;;;;;6.32;1.90;;;1.80;99.90;;;;;;5091486;28;20413;-72
2022/02/08 00:31:52;;;;;;;7.03;2.00;;;1.80;99.90;;;;;;5092036;28;20103;-73
2022/02/08 00:34:17;;;;;;;5.28;2.22;;;1.70;99.90;;;;;;5073731;28;20352;-73
2022/02/08 00:36:43;;;;;;;4.88;1.90;;;1.70;99.90;;;;;;5073743;28;20115;-72
2022/02/08 00:39:09;;;;;;;5.47;2.10;;;1.70;99.90;;;;;;5091170;28;20383;-72
2022/02/08 00:41:37;;;;;;;8.73;2.72;;;1.80;99.90;;;;;;5071643;28;20024;-72
2022/02/08 00:44:12;;;;;;;4.75;2.38;;;1.70;99.90;;;;;;5091465;28;20024;-72
2022/02/08 00:49:42;;;;;;;5.47;1.85;;;1.70;99.90;;;;;;5008930;28;20029;-72
2022/02/08 00:52:14;;;;;;;3.58;1.67;;;1.70;99.90;;;;;;5042040;28;20111;-72
2022/02/08 00:54:44;;;;;;;7.30;2.35;;;1.70;99.90;;;;;;5071235;28;20016;-74
2022/02/08 00:57:10;;;;;;;7.97;2.10;;;1.70;99.90;;;;;;5052666;28;20041;-72
2022/02/08 00:59:35;;;;;;;4.72;1.98;;;1.70;99.90;;;;;;5090650;28;20020;-72
2022/02/08 01:02:01;;;;;;;10.48;2.30;;;1.70;99.90;;;;;;5078586;28;20387;-72
2022/02/08 01:04:27;;;;;;;5.82;2.10;;;1.80;99.90;;;;;;5086273;28;20028;-72
2022/02/08 01:06:55;;;;;;;6.88;2.20;;;1.80;99.90;;;;;;5091002;28;20104;-72
2022/02/08 01:09:30;;;;;;;7.85;1.77;;;1.80;99.90;;;;;;5072715;28;20024;-73
2022/02/08 01:11:56;;;;;;;5.88;1.98;;;1.80;99.90;;;;;;5090785;28;20110;-72
2022/02/08 01:14:25;;;;;;;5.65;2.00;;;1.80;99.90;;;;;;5058853;28;20116;-72
2022/02/08 01:16:52;;;;;;;10.38;2.10;;;1.80;99.90;;;;;;5087050;28;20071;-73
2022/02/08 01:19:20;;;;;;;7.10;2.08;;;1.80;99.90;;;;;;5093777;28;20032;-72
2022/02/08 01:21:45;;;;;;;5.25;1.67;;;1.80;99.90;;;;;;5088555;28;20028;-72
2022/02/08 01:24:11;;;;;;;7.55;1.85;;;1.80;99.90;;;;;;5091136;28;20032;-71
2022/02/08 01:26:48;;;;;;;5.50;1.88;;;1.90;99.90;;;;;;5090602;28;20104;-72
2022/02/08 01:29:59;;;;;;;7.00;2.17;;;1.90;99.90;;;;;;5089918;28;20349;-71
2022/02/08 01:32:52;;;;;;;7.38;1.83;;;1.90;99.90;;;;;;5068557;28;20039;-71
2022/02/08 01:40:29;;;;;;;7.78;2.22;;;1.90;99.90;;;;;;5090661;28;20512;-71
2022/02/08 01:48:10;;;;;;;5.15;1.80;;;1.90;99.90;;;;;;5089816;28;20644;-71
2022/02/08 01:50:37;;;;;;;9.50;2.10;;;1.90;99.90;;;;;;5070209;28;20017;-71
2022/02/08 01:53:04;;;;;;;5.53;2.00;;;1.90;99.90;;;;;;5055317;28;20125;-71
2022/02/08 01:55:30;;;;;;;8.18;2.15;;;1.90;99.90;;;;;;5090349;28;20019;-71
2022/02/08 01:57:56;;;;;;;5.03;1.77;;;1.90;99.90;;;;;;5070844;28;20395;-71
2022/02/08 02:00:23;;;;;;;9.38;1.90;;;1.90;99.90;;;;;;5101540;28;20023;-72
2022/02/08 02:02:48;;;;;;;4.57;1.90;;;1.90;99.90;;;;;;5088606;28;20085;-71
2022/02/08 02:05:14;;;;;;;6.57;2.20;;;1.90;99.90;;;;;;5076789;28;20017;-71
2022/02/08 02:07:47;;;;;;;7.57;2.20;;;1.80;99.90;;;;;;5063397;28;20032;-71
2022/02/08 02:10:13;;;;;;;;;;;1.80;99.90;;;;;;5088288;28;20085;-71
2022/02/08 02:12:53;;;;;;;5.43;1.90;;;1.80;99.90;;;;;;5078191;28;19904;-71
2022/02/08 02:15:20;;;;;;;6.03;1.80;;;1.80;99.90;;;;;;5069927;28;20037;-71
2022/02/08 02:17:45;;;;;;;5.47;1.73;;;1.70;99.90;;;;;;5050992;28;20082;-71
2022/02/08 02:20:11;;;;;;;4.38;1.75;;;1.70;99.90;;;;;;5051868;28;20028;-71
2022/02/08 02:22:37;;;;;;;6.00;2.08;;;1.70;99.90;;;;;;5070060;28;20025;-71
2022/02/08 02:25:03;;;;;;;7.22;1.60;;;1.70;99.90;;;;;;5087645;28;20500;-71
2022/02/08 02:27:29;;;;;;;6.78;1.95;;;1.60;99.90;;;;;;5070805;28;20051;-71
2022/02/08 02:29:54;;;;;;;5.72;1.70;;;1.60;99.90;;;;;;5090052;28;20016;-72
2022/02/08 02:32:20;;;;;;;4.30;1.55;;;1.60;99.90;;;;;;5071698;28;20472;-70
2022/02/08 02:34:48;;;;;;;7.80;1.90;;;1.60;99.90;;;;;;5089841;28;20140;-71
2022/02/08 02:37:14;;;;;;;5.45;1.83;;;1.70;99.90;;;;;;5089153;28;20030;-71
2022/02/08 02:39:39;;;;;;;10.27;2.10;;;1.70;99.90;;;;;;5090066;28;20479;-71
2022/02/08 02:42:17;;;;;;;5.55;1.80;;;1.70;99.90;;;;;;5077257;28;20025;-71
2022/02/08 02:44:43;;;;;;;6.10;1.83;;;1.70;99.90;;;;;;5084561;28;20114;-71
2022/02/08 02:47:09;;;;;;;7.53;1.70;;;1.70;99.90;;;;;;5088613;28;20024;-72
2022/02/08 02:49:34;;;;;;;4.45;1.70;;;1.70;99.90;;;;;;5071697;28;20066;-71
2022/02/08 02:52:01;;;;;;;8.93;1.80;;;1.70;99.90;;;;;;5092640;28;20047;-71
2022/02/08 02:54:27;;;;;;;5.55;1.75;;;1.70;99.90;;;;;;5078106;28;20024;-71
2022/02/08 02:56:58;;;;;;;5.82;1.73;;;1.70;99.90;;;;;;5096495;28;20422;-71
2022/02/08 02:59:24;;;;;;;7.57;1.75;;;1.70;99.90;;;;;;5086281;28;20078;-71
2022/02/08 03:02:33;;;;;;;5.07;1.50;;;1.80;99.90;;;;;;5086114;28;20021;-72
2022/02/08 03:20:37;;;;;;;5.88;2.10;;;1.90;99.90;;;;;;5090169;28;20477;-71
2022/02/08 03:23:02;;;;;;;9.43;2.00;;;1.90;99.90;;;;;;5087253;28;20055;-71
2022/02/08 03:25:28;;;;;;;6.43;1.88;;;1.90;99.90;;;;;;5095711;28;20080;-71
2022/02/08 03:27:54;;;;;;;6.40;1.67;;;2.00;99.90;;;;;;5095115;28;20108;-73
2022/02/08 03:30:20;;;;;;;8.80;1.70;;;2.00;99.90;;;;;;5096365;28;20111;-70
2022/02/08 03:32:45;;;;;;;7.10;1.85;;;2.00;99.90;;;;;;5077536;28;20472;-70
2022/02/08 03:35:12;;;;;;;7.57;1.70;;;2.00;99.90;;;;;;5078054;28;20123;-71
2022/02/08 03:37:38;;;;;;;4.80;1.70;;;2.10;99.90;;;;;;5076758;28;20024;-73
2022/02/08 03:40:14;;;;;;;7.53;1.83;;;2.10;99.90;;;;;;5094856;28;20031;-71
2022/02/08 03:42:57;;;;;;;8.93;1.83;;;2.10;99.90;;;;;;5092551;28;20012;-70
2022/02/08 03:45:23;;;;;;;4.72;1.83;;;2.10;99.90;;;;;;5077607;28;20024;-71
2022/02/08 03:47:48;;;;;;;4.07;1.52;;;2.20;99.90;;;;;;5095222;28;20401;-71
2022/02/08 03:50:14;;;;;;;4.75;1.88;;;2.20;99.90;;;;;;5095598;28;20114;-70
2022/02/08 03:52:40;;;;;;;6.20;1.90;;;2.20;99.90;;;;;;5095995;28;20095;-70
2022/02/08 03:55:06;;;;;;;10.73;2.05;;;2.20;99.90;;;;;;5095618;28;20081;-71
2022/02/08 03:57:31;;;;;;;6.95;1.70;;;2.20;99.90;;;;;;5095138;28;20024;-70
2022/02/08 03:59:57;;;;;;;7.32;1.95;;;2.30;99.90;;;;;;5081205;28;20458;-70
2022/02/08 04:04:56;;;;;;;11.80;1.70;;;2.30;99.90;;;;;;5072774;28;20388;-72
2022/02/08 04:07:36;;;;;;;10.52;1.58;;;2.30;99.90;;;;;;5071347;28;20434;-71
2022/02/08 04:10:04;;;;;;;6.05;1.92;;;2.40;99.90;;;;;;5055341;28;20392;-71
2022/02/08 04:12:49;;;;;;;6.90;1.58;;;2.40;99.90;;;;;;5092084;28;21582;-75
2022/02/08 04:15:29;;;;;;;8.38;2.03;;;2.40;99.90;;;;;;5072298;28;20048;-70
2022/02/08 04:39:46;;;;;;;4.95;1.45;;;2.70;99.90;;;;;;5091189;28;20137;-71
2022/02/08 04:42:21;;;;;;;6.38;1.48;;;2.80;99.90;;;;;;5085205;28;20026;-70
2022/02/08 04:45:08;;;;;;;7.10;1.70;;;2.80;99.90;;;;;;5069861;28;20028;-71
2022/02/08 04:47:40;;;;;;;9.02;2.00;;;2.80;99.90;;;;;;5070966;28;20017;-71
2022/02/08 04:50:06;;;;;;;9.82;1.80;;;2.90;99.90;;;;;;5090519;28;20013;-72
2022/02/08 04:52:33;;;;;;;14.20;1.65;;;2.90;99.90;;;;;;5073216;28;20456;-71
2022/02/08 05:27:22;;;;;;;5.40;1.70;;;3.10;99.90;;;;;;5090544;28;20399;-70
2022/02/08 05:45:34;;;;;;;6.60;1.80;;;3.20;99.90;;;;;;5070685;28;20021;-70
2022/02/08 05:48:05;;;;;;;6.63;1.77;;;3.20;99.90;;;;;;5069655;28;20017;-70
2022/02/08 05:53:06;;;;;;;4.07;1.53;;;3.20;99.90;;;;;;5074948;28;20066;-69
2022/02/08 05:55:35;;;;;;;10.50;1.50;;;3.20;99.90;;;;;;5081248;28;20024;-71
2022/02/08 05:58:01;;;;;;;6.00;1.65;;;3.20;99.90;;;;;;5085345;28;20024;-70
2022/02/08 06:00:28;;;;;;;4.93;1.67;;;3.20;99.90;;;;;;5071044;28;20012;-70
2022/02/08 06:02:56;;;;;;;5.70;1.50;;;3.20;99.90;;;;;;5088562;28;20052;-71
2022/02/08 06:05:22;;;;;;;7.60;1.65;;;3.10;99.90;;;;;;5075152;28;20081;-71
2022/02/08 06:07:48;;;;;;;5.97;1.80;;;3.20;99.90;;;;;;5068880;28;20429;-68
2022/02/08 06:10:14;;;;;;;4.20;1.58;;;3.10;99.90;;;;;;5070661;28;20021;-69
2022/02/08 06:12:44;;;;;;;6.80;1.60;;;3.10;99.90;;;;;;5071459;28;20420;-68
2022/02/08 06:15:12;;;;;;;7.80;1.80;;;3.10;99.90;;;;;;5090896;28;20494;-70
2022/02/08 06:17:38;;;;;;;6.28;1.88;;;3.10;99.90;;;;;;5089570;28;20024;-71
2022/02/08 06:20:06;;;;;;;7.45;1.50;;;3.10;99.90;;;;;;5090906;28;20047;-70
2022/02/08 06:22:32;;;;;;;10.48;2.10;;;3.10;99.90;;;;;;5090141;28;20026;-69
2022/02/08 06:24:58;;;;;;;5.85;1.90;;;3.10;99.90;;;;;;5089838;28;20028;-71
2022/02/08 06:27:29;;;;;;;8.05;1.60;;;3.10;99.90;;;;;;5067721;28;20082;-71
2022/02/08 06:29:55;;;;;;;7.32;1.67;;;3.10;99.90;;;;;;5089642;28;20016;-68
2022/02/08 06:32:20;;;;;;;7.40;1.65;;;3.10;99.90;;;;;;5090831;28;20463;-67
2022/02/08 06:34:46;;;;;;;4.90;1.63;;;3.10;99.90;;;;;;5089546;28;20032;-70
2022/02/08 06:37:14;;;;;;;9.23;1.70;;;3.10;99.90;;;;;;5070271;28;20055;-70
2022/02/08 06:39:40;;;;;;;7.15;2.15;;;3.10;99.90;;;;;;5070100;28;20025;-70
2022/02/08 06:42:08;;;;;;;8.35;1.83;;;3.10;99.90;;;;;;5070211;28;20028;-69
2022/02/08 06:44:34;;;;;;;7.78;1.90;;;3.10;99.90;;;;;;5085908;28;20031;-70
2022/02/08 06:47:00;;;;;;;8.50;2.20;;;3.10;99.90;;;;;;5089711;28;20113;-67
2022/02/08 06:49:25;;;;;;;7.75;2.03;;;3.20;99.90;;;;;;5089455;28;20506;-69
2022/02/08 06:51:51;;;;;;;11.45;2.65;;;3.20;99.90;;;;;;5090262;28;20047;-68
2022/02/08 06:54:17;;;;;;;8.48;1.77;;;3.20;99.90;;;;;;5089926;28;20017;-71
2022/02/08 06:56:42;;;;;;;6.85;1.90;;;3.20;99.90;;;;;;5080563;28;20097;-71
2022/02/08 06:59:10;;;;;;;8.05;1.85;;;3.20;99.90;;;;;;5076578;28;20074;-70
2022/02/08 07:01:37;;;;;;;7.28;1.70;;;3.20;99.90;;;;;;5090076;28;20039;-70
2022/02/08 07:04:06;;;;;;;8.20;1.70;;;3.20;99.90;;;;;;5089938;28;20503;-70
2022/02/08 07:06:32;;;;;;;10.18;1.70;;;3.20;99.90;;;;;;5075705;28;20028;-70
2022/02/08 07:08:58;;;;;;;11.05;3.10;;;3.20;99.90;;;;;;5069387;28;20456;-68
2022/02/08 07:11:25;;;;;;;9.35;2.20;;;3.20;99.90;;;;;;5069701;28;20024;-70
2022/02/08 07:13:52;;;;;;;6.90;1.98;;;3.20;99.90;;;;;;5074304;28;20024;-68
2022/02/08 07:16:20;;;;;;;6.72;1.80;;;3.20;99.90;;;;;;5074136;28;20543;-69
2022/02/08 07:18:45;;;;;;;8.85;1.98;;;3.20;99.90;;;;;;5083189;28;20046;-67
2022/02/08 07:21:11;;;;;;;6.70;2.30;;;3.10;99.90;;;;;;5090652;28;20479;-68
2022/02/08 07:23:37;;;;;;;9.10;1.70;;;3.10;99.90;;;;;;5089766;28;20538;-64
2022/02/08 07:26:04;;;;;;;14.00;2.28;;;3.00;99.90;;;;;;5083303;28;20032;-65
2022/02/08 07:28:30;;;;;;;11.00;1.75;;;3.00;99.90;;;;;;5088400;28;20494;-64
2022/02/08 07:31:02;;;;;;;8.43;1.73;;;3.00;99.90;;;;;;5088732;28;20024;-68
2022/02/08 07:33:28;;;;;;;6.78;2.13;;;3.00;99.90;;;;;;5089213;28;20028;-68
2022/02/08 07:36:08;;;;;;;10.95;1.92;;;3.00;99.90;;;;;;5090323;28;20028;-68
2022/02/08 07:38:37;;;;;;;5.63;1.70;;;3.00;99.90;;;;;;5090812;28;20055;-68
2022/02/08 07:43:29;;;;;;;11.80;2.60;;;3.00;99.90;;;;;;5093960;28;20130;-68
2022/02/08 07:45:56;;;;;;;8.02;1.88;;;3.00;99.90;;;;;;5092984;28;20458;-70
2022/02/08 07:48:23;;;;;;;12.45;2.30;;;3.00;99.90;;;;;;5093184;28;20076;-68
2022/02/08 07:50:51;;;;;;;9.85;2.03;;;3.00;99.90;;;;;;5093256;28;20027;-69
2022/02/08 07:53:18;;;;;;;9.32;1.98;;;3.00;99.90;;;;;;5093843;28;20062;-68
2022/02/08 07:55:44;;;;;;;16.35;2.33;;;3.10;99.90;;;;;;5091756;28;20020;-68
2022/02/08 07:58:09;;;;;;;8.68;2.10;;;3.00;99.90;;;;;;5085659;28;20104;-68
2022/02/08 08:00:35;;;;;;;9.73;1.92;;;3.10;99.90;;;;;;5089142;28;20028;-71
2022/02/08 08:03:01;;;;;;;11.32;2.30;;;3.10;99.90;;;;;;5084087;28;20020;-68
2022/02/08 08:05:26;;;;;;;6.22;2.00;;;3.10;99.90;;;;;;5087420;28;20032;-68
2022/02/08 08:07:52;;;;;;;10.70;2.05;;;3.10;99.90;;;;;;5090900;28;20069;-68
2022/02/08 08:10:20;;;;;;;6.28;1.77;;;3.10;99.90;;;;;;5092452;28;20040;-69
2022/02/08 08:12:52;;;;;;;13.60;1.80;;;3.20;99.90;;;;;;5084366;28;20472;-70
2022/02/08 08:16:12;;;;;;;;;;;3.10;99.90;;;;;;5091170;28;20027;-68
2022/02/08 08:18:56;;;;;;;12.85;2.35;;;3.10;99.90;;;;;;5078390;28;20349;-68
2022/02/08 08:20:58;;;;;;;9.10;2.03;;;3.20;99.90;;;;;;5089903;28;20075;-68
2022/02/08 08:23:24;;;;;;;10.60;1.67;;;3.20;99.90;;;;;;5091177;28;20112;-68
2022/02/08 08:25:50;;;;;;;7.88;1.92;;;3.20;99.90;;;;;;5078909;28;20082;-71
2022/02/08 08:28:17;;;;;;;9.70;2.53;;;3.20;99.90;;;;;;5091482;28;20158;-70
2022/02/08 08:30:42;;;;;;;7.18;2.00;;;3.30;99.90;;;;;;5092675;28;20038;-69
2022/02/08 08:33:08;;;;;;;6.50;2.03;;;3.30;99.90;;;;;;5092446;28;20020;-69
2022/02/08 08:35:35;;;;;;;9.30;1.88;;;3.30;99.90;;;;;;5091669;28;20494;-68
2022/02/08 08:38:04;;;;;;;8.57;1.98;;;3.40;99.90;;;;;;5090981;28;20085;-68
2022/02/08 08:48:44;;;;;;;5.05;1.63;;;3.50;99.90;;;;;;5087016;28;20108;-69
2022/02/08 08:51:33;;;;;;;13.30;3.67;;;3.50;99.90;;;;;;5087587;28;20023;-69
2022/02/08 08:53:58;;;;;;;9.98;1.95;;;3.60;99.90;;;;;;5091870;28;20030;-71
2022/02/08 08:56:24;;;;;;;9.40;2.00;;;3.60;99.90;;;;;;5090109;28;20528;-68
2022/02/08 08:58:50;;;;;;;6.80;1.90;;;3.70;99.90;;;;;;5080353;28;20075;-68
2022/02/08 09:01:15;;;;;;;5.70;1.95;;;3.70;99.90;;;;;;5083987;28;20054;-69
2022/02/08 09:03:42;;;;;;;10.07;1.92;;;3.80;99.90;;;;;;5070096;28;20036;-70
2022/02/08 09:06:09;;;;;;;7.18;2.28;;;3.80;99.90;;;;;;5078883;28;20564;-67
2022/02/08 09:08:39;;;;;;;3.53;1.52;;;3.90;99.90;;;;;;5081234;28;20460;-69
2022/02/08 09:11:13;;;;;;;8.20;1.77;;;3.90;99.90;;;;;;5091329;28;20042;-68
2022/02/08 09:13:46;;;;;;;8.88;2.47;;;3.90;99.90;;;;;;5091077;28;20495;-71
2022/02/08 09:16:28;;;;;;;7.07;1.95;;;4.00;99.90;;;;;;5072119;28;20464;-69
2022/02/08 09:22:00;;;;;;;6.80;1.83;;;4.20;99.90;;;;;;5086289;28;20507;-68
2022/02/08 09:27:43;;;;;;;9.55;1.75;;;4.40;99.90;;;;;;5074918;28;20074;-71
2022/02/08 09:30:04;;;;;;;8.85;2.40;;;4.50;99.90;;;;;;5077144;28;20031;-69
2022/02/08 09:34:55;;;;;;;6.07;1.45;;;4.70;99.90;;;;;;5085788;28;20127;-71
2022/02/08 09:37:21;;;;;;;9.88;1.98;;;4.80;99.90;;;;;;5074009;28;20099;-68
2022/02/08 09:39:51;;;;;;;11.57;1.92;;;4.90;99.90;;;;;;5070203;28;20024;-70
2022/02/08 09:42:17;;;;;;;8.85;1.83;;;5.00;99.90;;;;;;5084037;28;20054;-68
2022/02/08 09:44:43;;;;;;;5.53;1.58;;;5.10;99.90;;;;;;5084821;28;20036;-69
2022/02/08 09:47:15;;;;;;;6.43;1.88;;;5.10;99.90;;;;;;5090453;28;20073;-68
2022/02/08 09:49:50;;;;;;;6.90;1.90;;;5.20;99.90;;;;;;5072746;28;20392;-68
2022/02/08 09:52:17;;;;;;;6.82;1.80;;;5.30;99.90;;;;;;5091218;28;20473;-68
2022/02/08 09:54:44;;;;;;;10.27;1.77;;;5.40;99.90;;;;;;5090754;28;20403;-69
2022/02/08 09:57:11;;;;;;;9.75;2.00;;;5.40;99.90;;;;;;5072021;28;20066;-68
2022/02/08 09:59:37;;;;;;;7.15;1.67;;;5.50;99.90;;;;;;5073539;28;20375;-69
2022/02/08 10:02:03;;;;;;;8.30;1.83;;;5.60;99.90;;;;;;5090839;28;20111;-68
2022/02/08 10:04:29;;;;;;;7.80;1.83;;;5.70;99.90;;;;;;5090613;28;20059;-68
2022/02/08 10:06:55;;;;;;;7.38;1.98;;;5.70;99.90;;;;;;5090396;28;20064;-68
2022/02/08 10:09:31;;;;;;;7.53;2.63;;;5.80;99.90;;;;;;5090019;28;20035;-70
2022/02/08 10:11:58;;;;;;;8.07;1.50;;;5.80;99.90;;;;;;5091697;28;20121;-68
2022/02/08 10:22:59;;;;;;;9.20;1.55;;;6.00;99.90;;;;;;5091704;28;20085;-69
2022/02/08 10:28:16;;;;;;;6.20;1.63;;;6.00;99.90;;;;;;5076312;28;20031;-68
2022/02/08 10:31:00;;;;;;;8.15;2.03;;;6.00;99.90;;;;;;5074850;28;20076;-68
2022/02/08 10:39:00;;;;;;;6.72;1.55;;;6.20;99.90;;;;;;5090221;28;20490;-69
2022/02/08 10:41:26;;;;;;;10.18;1.92;;;6.20;99.90;;;;;;5089998;28;20036;-70
2022/02/08 10:43:58;;;;;;;7.30;1.70;;;6.20;99.90;;;;;;5090184;28;20032;-69
2022/02/08 10:46:25;;;;;;;3.65;1.50;;;6.20;99.90;;;;;;5090531;28;20027;-69
2022/02/08 10:49:02;;;;;;;14.02;2.00;;;6.20;99.90;;;;;;5080306;28;20099;-69
2022/02/08 10:51:29;;;;;;;8.65;1.95;;;6.30;99.90;;;;;;5078285;28;20035;-70
2022/02/08 10:54:00;;;;;;;7.70;1.50;;;6.30;99.90;;;;;;5071613;28;20046;-69
2022/02/08 10:56:30;;;;;;;7.03;1.70;;;6.30;99.90;;;;;;5070679;28;20024;-71
2022/02/08 10:59:13;;;;;;;8.88;1.90;;;6.40;99.90;;;;;;5076975;28;20471;-69
2022/02/08 11:01:46;;;;;;;12.02;1.92;;;6.40;99.90;;;;;;5076985;28;20574;-69
2022/02/08 11:04:19;;;;;;;6.82;1.95;;;6.40;99.90;;;;;;5061099;28;20145;-72
2022/02/08 11:06:59;;;;;;;5.75;1.73;;;6.50;99.90;;;;;;5087579;28;20136;-69
2022/02/08 11:09:39;;;;;;;4.70;1.75;;;6.40;99.90;;;;;;5059229;28;20020;-69
2022/02/08 11:22:48;;;;;;;8.65;1.83;;;6.50;99.90;;;;;;5086832;28;20102;-68
2022/02/08 11:27:55;;;;;;;9.10;2.58;;;6.40;99.90;;;;;;5093678;28;20038;-68
2022/02/08 11:39:08;;;;;;;13.00;2.15;;;6.40;99.90;;;;;;5092311;28;20027;-67
2022/02/08 11:47:48;;;;;;;21.60;9.88;;;6.40;99.90;;;;;;5092106;28;20024;-67
2022/02/08 11:58:59;;;;;;;10.77;2.85;;;6.20;99.90;;;;;;5092450;28;20077;-68
2022/02/08 12:01:44;;;;;;;7.47;2.08;;;6.20;99.90;;;;;;5091787;28;20028;-68
2022/02/08 12:10:02;;;;;;;8.77;2.30;;;6.20;99.90;;;;;;5093249;28;20388;-68
2022/02/08 12:54:15;;;;;;;9.80;2.78;;;6.20;99.90;;;;;;5092461;28;20024;-68
2022/02/08 13:18:47;;;;;;;6.95;1.80;;;6.50;99.90;;;;;;5090123;28;20093;-67
2022/02/08 14:14:33;;;;;;;4.65;1.30;;;7.10;99.90;;;;;;5091127;28;20070;-68
2022/02/08 14:17:28;;;;;;;8.57;2.67;;;7.10;99.90;;;;;;5089472;28;20043;-68
2022/02/08 14:22:46;;;;;;;14.63;4.47;;;7.20;99.90;;;;;;5101011;28;20035;-69
2022/02/08 14:25:21;;;;;;;3.28;1.88;;;7.20;99.90;;;;;;5101370;28;20130;-69
2022/02/08 14:31:39;;;;;;;4.88;1.58;;;7.20;99.90;;;;;;5089926;28;20070;-69
2022/02/08 15:08:10;;;;;;;5.07;1.60;;;7.40;99.90;;;;;;5088418;28;20124;-69
2022/02/08 15:10:40;;;;;;;4.50;1.30;;;7.40;99.90;;;;;;5090339;28;20016;-68
2022/02/08 15:13:07;;;;;;;6.78;1.30;;;7.40;99.90;;;;;;5089240;28;20052;-67
2022/02/08 15:18:07;;;;;;;3.55;1.50;;;7.40;99.90;;;;;;5034173;28;1391099;-69
2022/02/08 15:20:33;;;;;;;3.67;1.30;;;7.40;99.90;;;;;;5090311;28;20368;-69
2022/02/08 15:23:01;;;;;;;5.40;1.08;;;7.40;99.90;;;;;;5081890;28;20039;-68
2022/02/08 15:25:29;;;;;;;32.20;15.93;;;7.40;99.90;;;;;;5069991;28;20035;-68
2022/02/08 15:28:00;;;;;;;3.13;1.67;;;7.40;99.90;;;;;;5076013;28;20020;-68
2022/02/08 15:30:26;;;;;;;5.03;2.30;;;7.30;99.90;;;;;;5090165;28;20024;-68
2022/02/08 15:32:51;;;;;;;4.85;1.55;;;7.30;99.90;;;;;;5089835;28;20024;-68
2022/02/08 15:35:17;;;;;;;5.40;1.70;;;7.30;99.90;;;;;;5086011;28;20027;-68
2022/02/08 15:37:43;;;;;;;2.80;1.10;;;7.30;99.90;;;;;;5086998;28;20085;-68
2022/02/08 15:40:10;;;;;;;6.13;1.10;;;7.30;99.90;;;;;;5088866;28;20031;-68
2022/02/08 15:42:40;;;;;;;5.72;1.30;;;7.30;99.90;;;;;;5087584;28;20043;-67
2022/02/08 15:45:16;;;;;;;6.18;1.23;;;7.30;99.90;;;;;;5088611;28;20038;-69
2022/02/08 15:47:42;;;;;;;8.27;1.30;;;7.30;99.90;;;;;;5088152;28;20020;-69
2022/02/08 15:50:14;;;;;;;4.68;1.02;;;7.30;99.90;;;;;;5090173;28;20145;-69
2022/02/08 15:53:30;;;;;;;5.80;1.40;;;7.20;99.90;;;;;;5088352;28;20099;-69
2022/02/08 15:56:04;;;;;;;7.63;1.60;;;7.20;99.90;;;;;;5086773;28;20039;-69
2022/02/08 16:05:05;;;;;;;8.07;2.22;;;7.20;99.90;;;;;;5093502;28;20054;-69
2022/02/08 16:17:24;;;;;;;5.85;1.80;;;7.10;99.90;;;;;;5089961;28;20061;-68
2022/02/08 16:53:32;;;;;;;3.65;1.52;;;7.10;99.90;;;;;;5089866;28;20100;-68
2022/02/08 16:58:36;;;;;;;7.65;1.95;;;7.20;99.90;;;;;;5090559;28;20070;-67
2022/02/08 17:01:10;;;;;;;8.52;2.42;;;7.10;99.90;;;;;;5091680;28;20414;-68
2022/02/08 17:03:41;;;;;;;5.18;1.95;;;7.10;99.90;;;;;;5092024;28;20418;-68
2022/02/08 17:06:07;;;;;;;6.00;2.03;;;7.10;99.90;;;;;;5090708;28;20089;-69
2022/02/08 17:08:32;;;;;;;10.10;2.42;;;7.10;99.90;;;;;;5091504;28;20081;-68
2022/02/08 17:11:00;;;;;;;23.63;7.60;;;7.10;99.90;;;;;;5090101;28;20539;-69
2022/02/08 17:16:44;;;;;;;12.02;4.40;;;7.10;99.90;;;;;;5100911;22;20536;-68
2022/02/08 17:48:08;;;;;;;10.93;3.83;;;7.00;99.90;;;;;;5066502;28;20385;-70
2022/02/08 17:50:34;;;;;;;4.85;2.33;;;7.00;99.90;;;;;;5069290;28;20024;-70
2022/02/08 17:53:00;;;;;;;3.97;2.55;;;6.90;99.90;;;;;;5063554;28;20028;-70
2022/02/08 17:55:26;;;;;;;9.35;4.20;;;7.00;99.90;;;;;;5069268;28;20020;-70
2022/02/08 17:57:52;;;;;;;7.68;4.88;;;6.90;99.90;;;;;;5068433;28;20024;-67
2022/02/08 18:00:18;;;;;;;7.10;2.70;;;6.90;99.90;;;;;;5070302;28;20166;-69
2022/02/08 18:02:45;;;;;;;4.88;2.33;;;6.90;99.90;;;;;;5069785;28;20621;-72
2022/02/08 18:05:12;;;;;;;5.13;2.15;;;6.80;99.90;;;;;;5070775;28;20271;-70
2022/02/08 18:07:38;;;;;;;4.60;2.55;;;6.80;99.90;;;;;;5069112;28;20020;-69
2022/02/08 18:10:05;;;;;;;9.95;5.15;;;6.80;99.90;;;;;;5070144;28;20036;-68
2022/02/08 18:12:31;;;;;;;9.23;3.13;;;6.80;99.90;;;;;;5070532;28;20085;-68
2022/02/08 18:15:03;;;;;;;5.40;2.40;;;6.80;99.90;;;;;;5069966;28;20031;-69
2022/02/08 18:17:33;;;;;;;13.82;7.13;;;6.70;99.90;;;;;;5064442;28;20041;-69
2022/02/08 19:22:05;;;;;;;14.90;5.47;;;6.50;99.90;;;;;;5066413;28;20551;-70
2022/02/08 19:24:30;;;;;;;14.30;5.13;;;6.50;99.90;;;;;;5066123;28;20103;-70
2022/02/08 19:26:58;;;;;;;17.48;8.30;;;6.50;99.90;;;;;;5065620;28;20116;-70
2022/02/08 19:29:26;;;;;;;15.65;5.68;;;6.50;99.90;;;;;;5065775;28;20028;-69
2022/02/08 19:31:53;;;;;;;10.70;5.03;;;6.50;99.90;;;;;;5072777;28;20020;-71
2022/02/08 19:34:20;;;;;;;13.05;5.03;;;6.50;99.90;;;;;;5066317;28;20440;-71
2022/02/08 19:36:46;;;;;;;10.60;4.53;;;6.50;99.90;;;;;;5070597;28;20066;-71
2022/02/08 19:39:13;;;;;;;16.67;5.68;;;6.50;99.90;;;;;;5067677;28;20479;-70
2022/02/08 19:41:39;;;;;;;16.63;4.82;;;6.50;99.90;;;;;;5065277;28;20107;-69
2022/02/08 19:44:07;;;;;;;14.88;6.43;;;6.50;99.90;;;;;;5052356;28;20108;-70
2022/02/08 19:46:33;;;;;;;13.63;5.63;;;6.50;99.90;;;;;;5062126;28;20033;-71
2022/02/08 19:48:59;;;;;;;15.27;6.32;;;6.50;99.90;;;;;;5066528;28;20086;-71
2022/02/08 19:51:24;;;;;;;13.50;6.00;;;6.50;99.90;;;;;;5051110;28;20037;-70
2022/02/08 19:53:52;;;;;;;13.60;5.45;;;6.50;99.90;;;;;;5069656;28;20060;-71
2022/02/08 19:56:26;;;;;;;10.85;5.47;;;6.50;99.90;;;;;;5070195;28;20032;-69
2022/02/08 19:58:55;;;;;;;15.07;5.90;;;6.50;99.90;;;;;;5068027;28;20040;-69
2022/02/08 20:01:31;;;;;;;14.45;6.40;;;6.50;99.90;;;;;;5069290;28;20488;-70
2022/02/08 20:04:01;;;;;;;15.20;5.60;;;6.40;99.90;;;;;;5056619;28;20027;-69
2022/02/08 20:06:28;;;;;;;13.82;6.05;;;6.50;99.90;;;;;;5063918;28;20124;-69
2022/02/08 20:08:54;;;;;;;14.13;5.03;;;6.40;99.90;;;;;;5059688;28;20024;-71
2022/02/08 20:11:21;;;;;;;16.45;5.38;;;6.50;99.90;;;;;;5064829;28;20059;-70
2022/02/08 20:13:57;;;;;;;9.65;4.90;;;6.50;99.90;;;;;;5068707;28;20029;-71
2022/02/08 20:16:24;;;;;;;16.25;5.07;;;6.50;99.90;;;;;;5069074;28;20036;-71
2022/02/08 20:18:53;;;;;;;12.23;6.30;;;6.40;99.90;;;;;;5067269;28;20052;-71
2022/02/08 20:21:19;;;;;;;14.95;5.18;;;6.40;99.90;;;;;;5063771;28;20056;-69
2022/02/08 20:23:45;;;;;;;14.85;5.38;;;6.50;99.90;;;;;;5050650;28;20078;-69
2022/02/08 20:26:11;;;;;;;13.05;5.28;;;6.50;99.90;;;;;;5058525;28;20028;-69
2022/02/08 20:28:48;;;;;;;10.82;4.45;;;6.40;99.90;;;;;;5064994;28;20036;-71
2022/02/08 20:31:14;;;;;;;12.00;4.68;;;6.40;99.90;;;;;;5073200;28;20531;-70
2022/02/08 20:33:40;;;;;;;12.00;4.45;;;6.40;99.90;;;;;;5062926;28;20109;-71
2022/02/08 20:36:06;;;;;;;11.32;4.22;;;6.40;99.90;;;;;;5063033;28;20104;-71
2022/02/08 20:38:32;;;;;;;6.60;4.35;;;6.40;99.90;;;;;;5067188;28;20396;-71
2022/02/08 20:40:57;;;;;;;11.93;4.60;;;6.40;99.90;;;;;;5066880;28;20553;-69
2022/02/08 20:43:23;;;;;;;15.43;4.22;;;6.40;99.90;;;;;;5067043;28;20050;-71
2022/02/08 20:45:50;;;;;;;11.25;4.57;;;6.40;99.90;;;;;;5064446;28;20064;-69
2022/02/08 20:48:16;;;;;;;11.10;4.13;;;6.40;99.90;;;;;;5066534;28;20385;-69
2022/02/08 20:50:42;;;;;;;9.18;4.18;;;6.40;99.90;;;;;;5067225;28;20483;-68
2022/02/08 20:53:15;;;;;;;11.63;3.78;;;6.40;99.90;;;;;;5068645;28;20060;-70
2022/02/08 20:55:48;;;;;;;6.80;3.85;;;6.40;99.90;;;;;;5061178;28;20508;-71
2022/02/08 20:58:21;;;;;;;7.82;4.53;;;6.40;99.90;;;;;;5063544;28;20027;-70
2022/02/08 21:00:49;;;;;;;12.02;4.78;;;6.40;99.90;;;;;;5060221;28;20036;-70
2022/02/08 21:08:31;;;;;;;11.38;5.30;;;6.40;99.90;;;;;;5064841;28;20032;-71
2022/02/08 21:11:01;;;;;;;10.45;4.65;;;6.40;99.90;;;;;;5060991;28;20028;-69
2022/02/08 21:13:47;;;;;;;11.27;4.35;;;6.40;99.90;;;;;;5066551;28;20028;-70
2022/02/08 21:16:15;;;;;;;12.32;4.28;;;6.40;99.90;;;;;;5069060;28;20025;-70
2022/02/08 21:18:41;;;;;;;9.57;3.92;;;6.40;99.90;;;;;;5068871;28;20052;-68